sensor_id;sensor_type;location;lat;lon;timestamp;P1;durP1;ratioP1;P2;durP2;ratioP2
9473;SDS011;8865;47.636;7.692;2023-03-01T00:01:26;15.00;;;12.37;;
9473;SDS011;8865;47.636;7.692;2023-03-01T00:03:54;19.87;;;13.67;;
9473;SDS011;8865;47.636;7.692;2023-03-01T00:06:21;17.57;;;13.53;;
9473;SDS011;8865;47.636;7.692;2023-03-01T00:08:48;21.30;;;13.50;;
9473;SDS011;8865;47.636;7.692;2023-03-01T00:11:19;16.67;;;13.07;;
9473;SDS011;8865;47.636;7.692;2023-03-01T00:13:48;14.63;;;12.00;;
9473;SDS011;8865;47.636;7.692;2023-03-01T00:16:20;16.03;;;12.57;;
9473;SDS011;8865;47.636;7.692;2023-03-01T00:18:54;16.80;;;12.87;;
9473;SDS011;8865;47.636;7.692;2023-03-01T00:21:21;18.47;;;12.80;;
9473;SDS011;8865;47.636;7.692;2023-03-01T00:23:48;16.90;;;12.53;;
9473;SDS011;8865;47.636;7.692;2023-03-01T00:26:15;17.47;;;13.13;;
9473;SDS011;8865;47.636;7.692;2023-03-01T00:28:43;16.20;;;12.27;;
9473;SDS011;8865;47.636;7.692;2023-03-01T00:31:11;16.03;;;12.47;;
9473;SDS011;8865;47.636;7.692;2023-03-01T00:33:39;18.40;;;12.90;;
9473;SDS011;8865;47.636;7.692;2023-03-01T00:36:06;16.87;;;12.83;;
9473;SDS011;8865;47.636;7.692;2023-03-01T00:38:37;15.27;;;12.37;;
9473;SDS011;8865;47.636;7.692;2023-03-01T00:41:05;13.90;;;12.20;;
9473;SDS011;8865;47.636;7.692;2023-03-01T00:43:32;15.10;;;12.40;;
9473;SDS011;8865;47.636;7.692;2023-03-01T00:46:05;15.10;;;11.57;;
9473;SDS011;8865;47.636;7.692;2023-03-01T00:48:34;15.23;;;12.13;;
9473;SDS011;8865;47.636;7.692;2023-03-01T00:51:08;16.53;;;12.60;;
9473;SDS011;8865;47.636;7.692;2023-03-01T00:53:36;15.40;;;12.27;;
9473;SDS011;8865;47.636;7.692;2023-03-01T00:56:03;13.60;;;11.83;;
9473;SDS011;8865;47.636;7.692;2023-03-01T00:58:30;15.40;;;12.70;;
9473;SDS011;8865;47.636;7.692;2023-03-01T01:00:57;14.43;;;12.00;;
9473;SDS011;8865;47.636;7.692;2023-03-01T01:03:23;16.23;;;12.50;;
9473;SDS011;8865;47.636;7.692;2023-03-01T01:05:51;15.60;;;12.53;;
9473;SDS011;8865;47.636;7.692;2023-03-01T01:08:18;17.63;;;12.43;;
9473;SDS011;8865;47.636;7.692;2023-03-01T01:10:45;17.33;;;12.53;;
9473;SDS011;8865;47.636;7.692;2023-03-01T01:13:11;14.77;;;12.30;;
9473;SDS011;8865;47.636;7.692;2023-03-01T01:15:38;13.67;;;12.00;;
9473;SDS011;8865;47.636;7.692;2023-03-01T01:18:04;14.93;;;13.03;;
9473;SDS011;8865;47.636;7.692;2023-03-01T01:20:31;14.13;;;12.00;;
9473;SDS011;8865;47.636;7.692;2023-03-01T01:22:58;14.97;;;12.43;;
9473;SDS011;8865;47.636;7.692;2023-03-01T01:25:24;16.17;;;12.50;;
9473;SDS011;8865;47.636;7.692;2023-03-01T01:27:51;15.33;;;12.70;;
9473;SDS011;8865;47.636;7.692;2023-03-01T01:30:17;16.00;;;11.80;;
9473;SDS011;8865;47.636;7.692;2023-03-01T01:32:43;16.07;;;12.67;;
9473;SDS011;8865;47.636;7.692;2023-03-01T01:35:09;13.50;;;11.50;;
9473;SDS011;8865;47.636;7.692;2023-03-01T01:37:35;15.47;;;11.67;;
9473;SDS011;8865;47.636;7.692;2023-03-01T01:40:02;13.70;;;12.23;;
9473;SDS011;8865;47.636;7.692;2023-03-01T01:42:32;14.23;;;12.03;;
9473;SDS011;8865;47.636;7.692;2023-03-01T01:48:04;14.67;;;12.07;;
9473;SDS011;8865;47.636;7.692;2023-03-01T01:50:36;17.63;;;13.33;;
9473;SDS011;8865;47.636;7.692;2023-03-01T01:53:09;16.53;;;12.93;;
9473;SDS011;8865;47.636;7.692;2023-03-01T01:55:39;15.77;;;13.00;;
9473;SDS011;8865;47.636;7.692;2023-03-01T01:58:11;16.63;;;13.80;;
9473;SDS011;8865;47.636;7.692;2023-03-01T02:00:41;14.37;;;11.83;;
9473;SDS011;8865;47.636;7.692;2023-03-01T02:03:11;14.80;;;12.37;;
9473;SDS011;8865;47.636;7.692;2023-03-01T02:05:45;14.10;;;12.17;;
9473;SDS011;8865;47.636;7.692;2023-03-01T02:08:15;15.73;;;12.50;;
9473;SDS011;8865;47.636;7.692;2023-03-01T02:10:43;14.43;;;12.07;;
9473;SDS011;8865;47.636;7.692;2023-03-01T02:13:11;14.73;;;11.83;;
9473;SDS011;8865;47.636;7.692;2023-03-01T02:15:38;15.50;;;12.30;;
9473;SDS011;8865;47.636;7.692;2023-03-01T02:18:06;15.43;;;12.63;;
9473;SDS011;8865;47.636;7.692;2023-03-01T02:23:11;15.77;;;13.37;;
9473;SDS011;8865;47.636;7.692;2023-03-01T02:28:29;17.37;;;13.60;;
9473;SDS011;8865;47.636;7.692;2023-03-01T02:31:06;17.30;;;13.63;;
9473;SDS011;8865;47.636;7.692;2023-03-01T02:33:53;16.73;;;13.70;;
9473;SDS011;8865;47.636;7.692;2023-03-01T02:36:21;16.37;;;12.83;;
9473;SDS011;8865;47.636;7.692;2023-03-01T02:38:53;15.67;;;13.13;;
9473;SDS011;8865;47.636;7.692;2023-03-01T02:41:22;15.07;;;13.10;;
9473;SDS011;8865;47.636;7.692;2023-03-01T02:43:51;18.23;;;14.13;;
9473;SDS011;8865;47.636;7.692;2023-03-01T02:46:20;17.47;;;13.07;;
9473;SDS011;8865;47.636;7.692;2023-03-01T02:48:48;16.43;;;13.17;;
9473;SDS011;8865;47.636;7.692;2023-03-01T02:53:56;15.60;;;13.33;;
9473;SDS011;8865;47.636;7.692;2023-03-01T02:56:32;14.60;;;12.63;;
9473;SDS011;8865;47.636;7.692;2023-03-01T03:17:47;15.07;;;12.57;;
9473;SDS011;8865;47.636;7.692;2023-03-01T09:20:03;24.40;;;18.77;;
9473;SDS011;8865;47.636;7.692;2023-03-01T09:22:32;25.50;;;19.83;;
9473;SDS011;8865;47.636;7.692;2023-03-01T09:25:00;28.57;;;20.77;;
9473;SDS011;8865;47.636;7.692;2023-03-01T09:27:26;27.03;;;20.23;;
9473;SDS011;8865;47.636;7.692;2023-03-01T09:29:52;27.50;;;20.67;;
9473;SDS011;8865;47.636;7.692;2023-03-01T09:32:18;24.43;;;19.60;;
9473;SDS011;8865;47.636;7.692;2023-03-01T09:34:44;25.70;;;19.63;;
9473;SDS011;8865;47.636;7.692;2023-03-01T09:37:32;25.23;;;20.13;;
9473;SDS011;8865;47.636;7.692;2023-03-01T09:39:59;25.47;;;20.00;;
9473;SDS011;8865;47.636;7.692;2023-03-01T09:42:26;24.00;;;19.53;;
9473;SDS011;8865;47.636;7.692;2023-03-01T09:45:06;27.13;;;19.80;;
9473;SDS011;8865;47.636;7.692;2023-03-01T09:47:41;24.40;;;19.67;;
9473;SDS011;8865;47.636;7.692;2023-03-01T09:52:42;24.57;;;18.83;;
9473;SDS011;8865;47.636;7.692;2023-03-01T09:55:12;26.67;;;19.27;;
9473;SDS011;8865;47.636;7.692;2023-03-01T09:57:46;26.50;;;19.80;;
9473;SDS011;8865;47.636;7.692;2023-03-01T10:00:28;27.07;;;18.80;;
9473;SDS011;8865;47.636;7.692;2023-03-01T10:03:20;23.23;;;19.57;;
9473;SDS011;8865;47.636;7.692;2023-03-01T10:08:36;30.27;;;19.33;;
9473;SDS011;8865;47.636;7.692;2023-03-01T10:11:18;30.50;;;20.13;;
9473;SDS011;8865;47.636;7.692;2023-03-01T10:13:50;26.10;;;18.80;;
9473;SDS011;8865;47.636;7.692;2023-03-01T10:16:21;27.37;;;18.83;;
9473;SDS011;8865;47.636;7.692;2023-03-01T10:19:01;31.47;;;19.97;;
9473;SDS011;8865;47.636;7.692;2023-03-01T10:21:30;23.97;;;18.87;;
9473;SDS011;8865;47.636;7.692;2023-03-01T10:24:08;28.00;;;19.83;;
9473;SDS011;8865;47.636;7.692;2023-03-01T10:29:07;22.77;;;20.13;;
9473;SDS011;8865;47.636;7.692;2023-03-01T10:31:39;24.40;;;19.97;;
9473;SDS011;8865;47.636;7.692;2023-03-01T10:36:41;25.30;;;19.20;;
9473;SDS011;8865;47.636;7.692;2023-03-01T10:39:16;25.50;;;19.17;;
9473;SDS011;8865;47.636;7.692;2023-03-01T10:41:51;25.50;;;20.30;;
9473;SDS011;8865;47.636;7.692;2023-03-01T10:44:40;23.83;;;19.40;;
9473;SDS011;8865;47.636;7.692;2023-03-01T10:47:16;23.50;;;19.00;;
9473;SDS011;8865;47.636;7.692;2023-03-01T10:49:53;22.07;;;18.63;;
9473;SDS011;8865;47.636;7.692;2023-03-01T10:52:31;28.10;;;19.90;;
9473;SDS011;8865;47.636;7.692;2023-03-01T10:55:01;23.97;;;19.37;;
9473;SDS011;8865;47.636;7.692;2023-03-01T10:57:29;23.97;;;19.33;;
9473;SDS011;8865;47.636;7.692;2023-03-01T11:02:49;24.40;;;18.70;;
9473;SDS011;8865;47.636;7.692;2023-03-01T11:05:25;23.67;;;19.70;;
9473;SDS011;8865;47.636;7.692;2023-03-01T11:07:54;22.33;;;18.37;;
9473;SDS011;8865;47.636;7.692;2023-03-01T11:10:30;25.67;;;19.37;;
9473;SDS011;8865;47.636;7.692;2023-03-01T11:13:08;24.30;;;19.63;;
9473;SDS011;8865;47.636;7.692;2023-03-01T11:15:40;23.47;;;19.37;;
9473;SDS011;8865;47.636;7.692;2023-03-01T11:18:20;24.47;;;19.00;;
9473;SDS011;8865;47.636;7.692;2023-03-01T11:20:48;23.17;;;19.20;;
9473;SDS011;8865;47.636;7.692;2023-03-01T11:23:17;21.67;;;19.13;;
9473;SDS011;8865;47.636;7.692;2023-03-01T11:25:55;25.20;;;20.67;;
9473;SDS011;8865;47.636;7.692;2023-03-01T11:28:24;23.20;;;18.97;;
9473;SDS011;8865;47.636;7.692;2023-03-01T11:30:54;23.93;;;19.73;;
9473;SDS011;8865;47.636;7.692;2023-03-01T11:38:39;24.27;;;20.23;;
9473;SDS011;8865;47.636;7.692;2023-03-01T11:41:06;23.40;;;19.53;;
9473;SDS011;8865;47.636;7.692;2023-03-01T11:52:15;22.70;;;19.97;;
9473;SDS011;8865;47.636;7.692;2023-03-01T11:55:07;22.83;;;18.47;;
9473;SDS011;8865;47.636;7.692;2023-03-01T12:03:59;23.53;;;19.60;;
9473;SDS011;8865;47.636;7.692;2023-03-01T12:09:29;23.63;;;18.67;;
9473;SDS011;8865;47.636;7.692;2023-03-01T12:33:34;24.10;;;20.27;;
9473;SDS011;8865;47.636;7.692;2023-03-01T12:44:51;24.77;;;19.00;;
9473;SDS011;8865;47.636;7.692;2023-03-01T12:49:57;19.67;;;17.53;;
9473;SDS011;8865;47.636;7.692;2023-03-01T12:52:35;21.90;;;18.37;;
9473;SDS011;8865;47.636;7.692;2023-03-01T12:55:08;18.97;;;16.87;;
9473;SDS011;8865;47.636;7.692;2023-03-01T13:00:40;22.17;;;18.47;;
9473;SDS011;8865;47.636;7.692;2023-03-01T13:09:29;22.13;;;17.43;;
9473;SDS011;8865;47.636;7.692;2023-03-01T13:11:59;23.40;;;18.47;;
9473;SDS011;8865;47.636;7.692;2023-03-01T13:16:51;20.17;;;17.10;;
9473;SDS011;8865;47.636;7.692;2023-03-01T13:19:20;20.83;;;17.67;;
9473;SDS011;8865;47.636;7.692;2023-03-01T13:21:48;19.63;;;17.33;;
9473;SDS011;8865;47.636;7.692;2023-03-01T13:29:51;19.30;;;16.23;;
9473;SDS011;8865;47.636;7.692;2023-03-01T13:32:22;21.03;;;17.70;;
9473;SDS011;8865;47.636;7.692;2023-03-01T13:34:52;20.33;;;17.07;;
9473;SDS011;8865;47.636;7.692;2023-03-01T13:37:39;19.97;;;17.17;;
9473;SDS011;8865;47.636;7.692;2023-03-01T13:40:56;19.33;;;16.87;;
9473;SDS011;8865;47.636;7.692;2023-03-01T13:42:51;19.87;;;17.30;;
9473;SDS011;8865;47.636;7.692;2023-03-01T13:47:53;21.40;;;17.27;;
9473;SDS011;8865;47.636;7.692;2023-03-01T13:50:24;20.20;;;17.27;;
9473;SDS011;8865;47.636;7.692;2023-03-01T13:55:30;22.37;;;17.20;;
9473;SDS011;8865;47.636;7.692;2023-03-01T13:58:04;18.33;;;16.07;;
9473;SDS011;8865;47.636;7.692;2023-03-01T14:00:40;20.33;;;16.47;;
9473;SDS011;8865;47.636;7.692;2023-03-01T14:05:39;18.17;;;16.27;;
9473;SDS011;8865;47.636;7.692;2023-03-01T14:08:20;20.60;;;16.53;;
9473;SDS011;8865;47.636;7.692;2023-03-01T14:10:51;18.60;;;16.63;;
9473;SDS011;8865;47.636;7.692;2023-03-01T14:19:05;18.53;;;16.40;;
9473;SDS011;8865;47.636;7.692;2023-03-01T14:21:45;19.83;;;16.07;;
9473;SDS011;8865;47.636;7.692;2023-03-01T14:24:16;17.73;;;15.83;;
9473;SDS011;8865;47.636;7.692;2023-03-01T14:26:47;19.17;;;16.30;;
9473;SDS011;8865;47.636;7.692;2023-03-01T14:29:24;19.53;;;16.17;;
9473;SDS011;8865;47.636;7.692;2023-03-01T14:31:51;20.83;;;16.40;;
9473;SDS011;8865;47.636;7.692;2023-03-01T14:34:21;18.97;;;16.50;;
9473;SDS011;8865;47.636;7.692;2023-03-01T14:36:48;17.87;;;15.97;;
9473;SDS011;8865;47.636;7.692;2023-03-01T14:39:24;21.33;;;16.77;;
9473;SDS011;8865;47.636;7.692;2023-03-01T14:41:51;19.70;;;16.23;;
9473;SDS011;8865;47.636;7.692;2023-03-01T14:44:21;19.00;;;15.97;;
9473;SDS011;8865;47.636;7.692;2023-03-01T14:46:53;21.37;;;16.70;;
9473;SDS011;8865;47.636;7.692;2023-03-01T14:49:22;22.67;;;17.77;;
9473;SDS011;8865;47.636;7.692;2023-03-01T14:54:27;23.97;;;18.37;;
9473;SDS011;8865;47.636;7.692;2023-03-01T14:56:58;20.33;;;17.60;;
9473;SDS011;8865;47.636;7.692;2023-03-01T14:59:26;21.87;;;17.40;;
9473;SDS011;8865;47.636;7.692;2023-03-01T15:01:53;20.13;;;17.87;;
9473;SDS011;8865;47.636;7.692;2023-03-01T15:04:22;22.03;;;18.07;;
9473;SDS011;8865;47.636;7.692;2023-03-01T15:06:50;20.53;;;17.10;;
9473;SDS011;8865;47.636;7.692;2023-03-01T15:09:18;20.93;;;17.53;;
9473;SDS011;8865;47.636;7.692;2023-03-01T15:11:44;22.53;;;19.10;;
9473;SDS011;8865;47.636;7.692;2023-03-01T15:17:20;20.03;;;17.47;;
9473;SDS011;8865;47.636;7.692;2023-03-01T15:19:56;20.20;;;17.07;;
9473;SDS011;8865;47.636;7.692;2023-03-01T15:22:23;20.40;;;16.30;;
9473;SDS011;8865;47.636;7.692;2023-03-01T15:24:51;22.07;;;17.43;;
9473;SDS011;8865;47.636;7.692;2023-03-01T15:27:20;19.00;;;16.70;;
9473;SDS011;8865;47.636;7.692;2023-03-01T15:29:49;22.97;;;16.63;;
9473;SDS011;8865;47.636;7.692;2023-03-01T15:32:26;18.90;;;16.23;;
9473;SDS011;8865;47.636;7.692;2023-03-01T15:34:52;20.33;;;16.80;;
9473;SDS011;8865;47.636;7.692;2023-03-01T15:40:18;20.80;;;17.07;;
9473;SDS011;8865;47.636;7.692;2023-03-01T15:42:46;19.73;;;15.93;;
9473;SDS011;8865;47.636;7.692;2023-03-01T15:47:48;20.77;;;17.13;;
9473;SDS011;8865;47.636;7.692;2023-03-01T15:52:49;23.47;;;19.17;;
9473;SDS011;8865;47.636;7.692;2023-03-01T15:57:44;21.77;;;18.23;;
9473;SDS011;8865;47.636;7.692;2023-03-01T16:00:11;19.97;;;17.50;;
9473;SDS011;8865;47.636;7.692;2023-03-01T16:02:40;22.87;;;17.73;;
9473;SDS011;8865;47.636;7.692;2023-03-01T16:05:17;20.47;;;16.87;;
9473;SDS011;8865;47.636;7.692;2023-03-01T16:07:46;23.13;;;16.87;;
9473;SDS011;8865;47.636;7.692;2023-03-01T16:10:12;21.73;;;17.77;;
9473;SDS011;8865;47.636;7.692;2023-03-01T16:12:39;21.20;;;17.67;;
9473;SDS011;8865;47.636;7.692;2023-03-01T16:15:10;22.83;;;18.23;;
9473;SDS011;8865;47.636;7.692;2023-03-01T16:17:42;23.17;;;18.40;;
9473;SDS011;8865;47.636;7.692;2023-03-01T16:20:08;22.37;;;18.50;;
9473;SDS011;8865;47.636;7.692;2023-03-01T16:22:34;23.50;;;18.20;;
9473;SDS011;8865;47.636;7.692;2023-03-01T16:25:00;22.67;;;17.63;;
9473;SDS011;8865;47.636;7.692;2023-03-01T16:27:28;26.37;;;19.33;;
9473;SDS011;8865;47.636;7.692;2023-03-01T16:29:54;21.67;;;18.00;;
9473;SDS011;8865;47.636;7.692;2023-03-01T16:32:20;21.73;;;17.27;;
9473;SDS011;8865;47.636;7.692;2023-03-01T16:34:46;23.60;;;18.80;;
9473;SDS011;8865;47.636;7.692;2023-03-01T16:37:15;24.43;;;19.13;;
9473;SDS011;8865;47.636;7.692;2023-03-01T16:39:41;31.83;;;20.73;;
9473;SDS011;8865;47.636;7.692;2023-03-01T16:42:07;28.30;;;20.40;;
9473;SDS011;8865;47.636;7.692;2023-03-01T16:44:33;27.80;;;20.30;;
9473;SDS011;8865;47.636;7.692;2023-03-01T16:46:59;25.03;;;19.13;;
9473;SDS011;8865;47.636;7.692;2023-03-01T16:49:25;25.73;;;19.37;;
9473;SDS011;8865;47.636;7.692;2023-03-01T16:51:53;22.17;;;18.40;;
9473;SDS011;8865;47.636;7.692;2023-03-01T16:54:19;23.20;;;18.83;;
9473;SDS011;8865;47.636;7.692;2023-03-01T16:56:45;23.37;;;18.17;;
9473;SDS011;8865;47.636;7.692;2023-03-01T16:59:11;23.73;;;18.57;;
9473;SDS011;8865;47.636;7.692;2023-03-01T17:01:37;26.83;;;19.60;;
9473;SDS011;8865;47.636;7.692;2023-03-01T17:04:06;26.10;;;19.33;;
9473;SDS011;8865;47.636;7.692;2023-03-01T17:06:35;25.37;;;20.43;;
9473;SDS011;8865;47.636;7.692;2023-03-01T17:09:01;24.90;;;19.30;;
9473;SDS011;8865;47.636;7.692;2023-03-01T17:11:27;22.97;;;19.27;;
9473;SDS011;8865;47.636;7.692;2023-03-01T17:13:53;23.23;;;18.63;;
9473;SDS011;8865;47.636;7.692;2023-03-01T17:16:20;22.67;;;19.10;;
9473;SDS011;8865;47.636;7.692;2023-03-01T17:18:46;23.50;;;18.67;;
9473;SDS011;8865;47.636;7.692;2023-03-01T17:21:13;23.77;;;18.83;;
9473;SDS011;8865;47.636;7.692;2023-03-01T17:23:41;24.53;;;20.10;;
9473;SDS011;8865;47.636;7.692;2023-03-01T17:26:09;28.70;;;21.57;;
9473;SDS011;8865;47.636;7.692;2023-03-01T17:28:36;24.73;;;20.37;;
9473;SDS011;8865;47.636;7.692;2023-03-01T17:31:03;25.13;;;19.73;;
9473;SDS011;8865;47.636;7.692;2023-03-01T17:33:31;26.03;;;20.77;;
9473;SDS011;8865;47.636;7.692;2023-03-01T17:35:57;26.63;;;20.37;;
9473;SDS011;8865;47.636;7.692;2023-03-01T17:38:24;26.00;;;20.83;;
9473;SDS011;8865;47.636;7.692;2023-03-01T17:40:50;26.23;;;19.57;;
9473;SDS011;8865;47.636;7.692;2023-03-01T17:43:16;26.43;;;19.73;;
9473;SDS011;8865;47.636;7.692;2023-03-01T17:45:43;26.77;;;20.63;;
9473;SDS011;8865;47.636;7.692;2023-03-01T17:48:13;27.23;;;20.97;;
9473;SDS011;8865;47.636;7.692;2023-03-01T17:50:40;32.57;;;21.83;;
9473;SDS011;8865;47.636;7.692;2023-03-01T17:53:06;26.33;;;21.27;;
9473;SDS011;8865;47.636;7.692;2023-03-01T17:55:35;28.33;;;22.20;;
9473;SDS011;8865;47.636;7.692;2023-03-01T17:58:02;26.33;;;21.00;;
9473;SDS011;8865;47.636;7.692;2023-03-01T18:00:29;28.50;;;21.97;;
9473;SDS011;8865;47.636;7.692;2023-03-01T18:02:55;32.53;;;25.00;;
9473;SDS011;8865;47.636;7.692;2023-03-01T18:05:21;26.63;;;21.63;;
9473;SDS011;8865;47.636;7.692;2023-03-01T18:07:47;26.43;;;19.83;;
9473;SDS011;8865;47.636;7.692;2023-03-01T18:10:15;25.93;;;19.27;;
9473;SDS011;8865;47.636;7.692;2023-03-01T18:12:41;27.90;;;20.97;;
9473;SDS011;8865;47.636;7.692;2023-03-01T18:15:08;25.20;;;20.10;;
9473;SDS011;8865;47.636;7.692;2023-03-01T18:17:34;29.83;;;21.07;;
9473;SDS011;8865;47.636;7.692;2023-03-01T18:20:00;27.97;;;20.47;;
9473;SDS011;8865;47.636;7.692;2023-03-01T18:22:26;26.73;;;20.33;;
9473;SDS011;8865;47.636;7.692;2023-03-01T18:24:52;24.77;;;19.93;;
9473;SDS011;8865;47.636;7.692;2023-03-01T18:27:18;26.57;;;20.43;;
9473;SDS011;8865;47.636;7.692;2023-03-01T18:29:44;27.10;;;20.97;;
9473;SDS011;8865;47.636;7.692;2023-03-01T18:32:10;30.37;;;21.90;;
9473;SDS011;8865;47.636;7.692;2023-03-01T18:34:36;29.80;;;22.00;;
9473;SDS011;8865;47.636;7.692;2023-03-01T18:37:02;30.13;;;22.03;;
9473;SDS011;8865;47.636;7.692;2023-03-01T18:39:28;30.53;;;23.50;;
9473;SDS011;8865;47.636;7.692;2023-03-01T18:41:54;27.77;;;21.83;;
9473;SDS011;8865;47.636;7.692;2023-03-01T18:44:20;29.30;;;22.73;;
9473;SDS011;8865;47.636;7.692;2023-03-01T18:46:46;29.43;;;23.37;;
9473;SDS011;8865;47.636;7.692;2023-03-01T18:49:13;31.70;;;22.57;;
9473;SDS011;8865;47.636;7.692;2023-03-01T18:51:40;26.97;;;21.33;;
9473;SDS011;8865;47.636;7.692;2023-03-01T18:54:06;27.70;;;21.03;;
9473;SDS011;8865;47.636;7.692;2023-03-01T18:56:35;27.13;;;20.60;;
9473;SDS011;8865;47.636;7.692;2023-03-01T18:59:01;26.00;;;20.43;;
9473;SDS011;8865;47.636;7.692;2023-03-01T19:01:29;23.77;;;19.37;;
9473;SDS011;8865;47.636;7.692;2023-03-01T19:03:56;26.70;;;20.80;;
9473;SDS011;8865;47.636;7.692;2023-03-01T19:06:23;22.97;;;19.27;;
9473;SDS011;8865;47.636;7.692;2023-03-01T19:08:52;27.63;;;21.27;;
9473;SDS011;8865;47.636;7.692;2023-03-01T19:11:19;26.83;;;20.97;;
9473;SDS011;8865;47.636;7.692;2023-03-01T19:13:46;25.50;;;20.33;;
9473;SDS011;8865;47.636;7.692;2023-03-01T19:16:13;29.13;;;20.40;;
9473;SDS011;8865;47.636;7.692;2023-03-01T19:18:42;29.53;;;21.63;;
9473;SDS011;8865;47.636;7.692;2023-03-01T19:21:15;26.40;;;20.73;;
9473;SDS011;8865;47.636;7.692;2023-03-01T19:23:42;25.73;;;21.17;;
9473;SDS011;8865;47.636;7.692;2023-03-01T19:26:12;26.40;;;19.73;;
9473;SDS011;8865;47.636;7.692;2023-03-01T19:28:40;25.43;;;20.63;;
9473;SDS011;8865;47.636;7.692;2023-03-01T19:31:07;25.60;;;19.43;;
9473;SDS011;8865;47.636;7.692;2023-03-01T19:33:34;25.47;;;19.93;;
9473;SDS011;8865;47.636;7.692;2023-03-01T19:36:02;46.07;;;32.60;;
9473;SDS011;8865;47.636;7.692;2023-03-01T19:38:29;57.50;;;37.53;;
9473;SDS011;8865;47.636;7.692;2023-03-01T19:40:55;73.60;;;47.83;;
9473;SDS011;8865;47.636;7.692;2023-03-01T19:43:22;94.33;;;55.53;;
9473;SDS011;8865;47.636;7.692;2023-03-01T19:45:52;55.57;;;35.77;;
9473;SDS011;8865;47.636;7.692;2023-03-01T19:48:19;55.77;;;34.30;;
9473;SDS011;8865;47.636;7.692;2023-03-01T19:50:45;30.80;;;23.03;;
9473;SDS011;8865;47.636;7.692;2023-03-01T19:53:12;24.20;;;19.97;;
9473;SDS011;8865;47.636;7.692;2023-03-01T19:55:39;25.57;;;20.00;;
9473;SDS011;8865;47.636;7.692;2023-03-01T19:58:05;34.20;;;26.23;;
9473;SDS011;8865;47.636;7.692;2023-03-01T20:00:32;39.97;;;32.00;;
9473;SDS011;8865;47.636;7.692;2023-03-01T20:02:59;42.50;;;32.20;;
9473;SDS011;8865;47.636;7.692;2023-03-01T20:05:25;29.90;;;24.57;;
9473;SDS011;8865;47.636;7.692;2023-03-01T20:07:54;27.53;;;22.50;;
9473;SDS011;8865;47.636;7.692;2023-03-01T20:10:22;26.07;;;20.50;;
9473;SDS011;8865;47.636;7.692;2023-03-01T20:12:51;40.90;;;32.23;;
9473;SDS011;8865;47.636;7.692;2023-03-01T20:15:18;39.87;;;32.87;;
9473;SDS011;8865;47.636;7.692;2023-03-01T20:17:45;34.93;;;29.77;;
9473;SDS011;8865;47.636;7.692;2023-03-01T20:20:11;29.40;;;23.40;;
9473;SDS011;8865;47.636;7.692;2023-03-01T20:22:38;33.77;;;23.53;;
9473;SDS011;8865;47.636;7.692;2023-03-01T20:25:05;29.07;;;22.23;;
9473;SDS011;8865;47.636;7.692;2023-03-01T20:27:32;31.10;;;22.93;;
9473;SDS011;8865;47.636;7.692;2023-03-01T20:29:58;27.20;;;22.03;;
9473;SDS011;8865;47.636;7.692;2023-03-01T20:32:24;29.07;;;22.50;;
9473;SDS011;8865;47.636;7.692;2023-03-01T20:34:50;28.37;;;22.40;;
9473;SDS011;8865;47.636;7.692;2023-03-01T20:37:16;25.53;;;20.77;;
9473;SDS011;8865;47.636;7.692;2023-03-01T20:39:42;27.97;;;22.60;;
9473;SDS011;8865;47.636;7.692;2023-03-01T20:42:08;27.60;;;22.13;;
9473;SDS011;8865;47.636;7.692;2023-03-01T20:44:34;27.40;;;22.17;;
9473;SDS011;8865;47.636;7.692;2023-03-01T20:47:08;27.07;;;21.23;;
9473;SDS011;8865;47.636;7.692;2023-03-01T20:49:35;27.40;;;22.20;;
9473;SDS011;8865;47.636;7.692;2023-03-01T20:52:02;27.03;;;21.53;;
9473;SDS011;8865;47.636;7.692;2023-03-01T20:54:28;28.33;;;20.20;;
9473;SDS011;8865;47.636;7.692;2023-03-01T20:56:54;27.90;;;21.70;;
9473;SDS011;8865;47.636;7.692;2023-03-01T20:59:21;27.33;;;21.20;;
9473;SDS011;8865;47.636;7.692;2023-03-01T21:01:48;31.60;;;21.83;;
9473;SDS011;8865;47.636;7.692;2023-03-01T21:04:14;27.33;;;21.53;;
9473;SDS011;8865;47.636;7.692;2023-03-01T21:06:42;24.67;;;20.30;;
9473;SDS011;8865;47.636;7.692;2023-03-01T21:09:09;26.23;;;20.53;;
9473;SDS011;8865;47.636;7.692;2023-03-01T21:11:36;23.53;;;19.53;;
9473;SDS011;8865;47.636;7.692;2023-03-01T21:14:02;26.53;;;20.80;;
9473;SDS011;8865;47.636;7.692;2023-03-01T21:16:30;25.83;;;21.43;;
9473;SDS011;8865;47.636;7.692;2023-03-01T21:19:00;26.13;;;22.03;;
9473;SDS011;8865;47.636;7.692;2023-03-01T21:21:27;28.47;;;22.33;;
9473;SDS011;8865;47.636;7.692;2023-03-01T21:23:53;29.87;;;22.73;;
9473;SDS011;8865;47.636;7.692;2023-03-01T21:26:28;25.13;;;19.47;;
9473;SDS011;8865;47.636;7.692;2023-03-01T21:28:58;26.87;;;19.37;;
9473;SDS011;8865;47.636;7.692;2023-03-01T21:31:27;23.73;;;19.07;;
9473;SDS011;8865;47.636;7.692;2023-03-01T21:33:57;24.37;;;18.97;;
9473;SDS011;8865;47.636;7.692;2023-03-01T21:36:25;24.70;;;19.47;;
9473;SDS011;8865;47.636;7.692;2023-03-01T21:38:52;24.03;;;17.77;;
9473;SDS011;8865;47.636;7.692;2023-03-01T21:43:47;24.20;;;19.40;;
9473;SDS011;8865;47.636;7.692;2023-03-01T21:46:17;24.07;;;19.37;;
9473;SDS011;8865;47.636;7.692;2023-03-01T21:48:45;22.33;;;18.30;;
9473;SDS011;8865;47.636;7.692;2023-03-01T21:51:13;25.57;;;19.33;;
9473;SDS011;8865;47.636;7.692;2023-03-01T21:53:41;25.93;;;19.20;;
9473;SDS011;8865;47.636;7.692;2023-03-01T21:56:08;23.57;;;19.67;;
9473;SDS011;8865;47.636;7.692;2023-03-01T21:58:35;26.77;;;20.77;;
9473;SDS011;8865;47.636;7.692;2023-03-01T22:03:29;25.90;;;20.83;;
9473;SDS011;8865;47.636;7.692;2023-03-01T22:05:55;25.83;;;20.07;;
9473;SDS011;8865;47.636;7.692;2023-03-01T22:08:26;24.80;;;19.13;;
9473;SDS011;8865;47.636;7.692;2023-03-01T22:10:53;26.67;;;19.30;;
9473;SDS011;8865;47.636;7.692;2023-03-01T22:13:19;23.63;;;19.67;;
9473;SDS011;8865;47.636;7.692;2023-03-01T22:15:45;25.60;;;19.77;;
9473;SDS011;8865;47.636;7.692;2023-03-01T22:18:12;28.53;;;20.20;;
9473;SDS011;8865;47.636;7.692;2023-03-01T22:20:39;25.67;;;20.07;;
9473;SDS011;8865;47.636;7.692;2023-03-01T22:23:06;24.90;;;19.73;;
9473;SDS011;8865;47.636;7.692;2023-03-01T22:25:32;23.47;;;18.77;;
9473;SDS011;8865;47.636;7.692;2023-03-01T22:28:04;25.00;;;18.30;;
9473;SDS011;8865;47.636;7.692;2023-03-01T22:30:30;20.60;;;17.30;;
9473;SDS011;8865;47.636;7.692;2023-03-01T22:32:56;21.77;;;17.97;;
9473;SDS011;8865;47.636;7.692;2023-03-01T22:35:22;24.50;;;18.37;;
9473;SDS011;8865;47.636;7.692;2023-03-01T22:37:48;24.63;;;19.00;;
9473;SDS011;8865;47.636;7.692;2023-03-01T22:40:14;25.83;;;20.53;;
9473;SDS011;8865;47.636;7.692;2023-03-01T22:42:40;26.77;;;19.37;;
9473;SDS011;8865;47.636;7.692;2023-03-01T22:45:06;28.57;;;21.47;;
9473;SDS011;8865;47.636;7.692;2023-03-01T22:47:34;30.10;;;21.23;;
9473;SDS011;8865;47.636;7.692;2023-03-01T22:50:03;27.20;;;20.80;;
9473;SDS011;8865;47.636;7.692;2023-03-01T22:52:31;33.13;;;23.47;;
9473;SDS011;8865;47.636;7.692;2023-03-01T22:54:57;29.03;;;21.73;;
9473;SDS011;8865;47.636;7.692;2023-03-01T22:57:24;28.57;;;22.30;;
9473;SDS011;8865;47.636;7.692;2023-03-01T22:59:50;32.50;;;22.37;;
9473;SDS011;8865;47.636;7.692;2023-03-01T23:02:16;30.20;;;21.63;;
9473;SDS011;8865;47.636;7.692;2023-03-01T23:04:42;30.40;;;22.83;;
9473;SDS011;8865;47.636;7.692;2023-03-01T23:07:08;30.53;;;23.77;;
9473;SDS011;8865;47.636;7.692;2023-03-01T23:09:34;28.50;;;22.87;;
9473;SDS011;8865;47.636;7.692;2023-03-01T23:12:01;29.87;;;22.63;;
9473;SDS011;8865;47.636;7.692;2023-03-01T23:14:31;30.13;;;23.53;;
9473;SDS011;8865;47.636;7.692;2023-03-01T23:16:57;33.53;;;23.67;;
9473;SDS011;8865;47.636;7.692;2023-03-01T23:19:27;31.00;;;22.93;;
9473;SDS011;8865;47.636;7.692;2023-03-01T23:21:54;30.07;;;23.63;;
9473;SDS011;8865;47.636;7.692;2023-03-01T23:24:22;32.20;;;23.87;;
9473;SDS011;8865;47.636;7.692;2023-03-01T23:26:56;28.37;;;22.67;;
9473;SDS011;8865;47.636;7.692;2023-03-01T23:29:24;29.97;;;23.63;;